sensor_id;sensor_type;location;lat;lon;timestamp;P1;durP1;ratioP1;P2;durP2;ratioP2
11777;SDS011;5946;51.770;8.548;2023-11-22T00:02:02;11.50;;;7.30;;
11777;SDS011;5946;51.770;8.548;2023-11-22T00:04:28;10.57;;;8.20;;
11777;SDS011;5946;51.770;8.548;2023-11-22T00:06:54;12.87;;;9.73;;
11777;SDS011;5946;51.770;8.548;2023-11-22T00:09:20;13.83;;;10.07;;
11777;SDS011;5946;51.770;8.548;2023-11-22T00:11:48;17.13;;;12.60;;
11777;SDS011;5946;51.770;8.548;2023-11-22T00:14:14;20.00;;;15.80;;
11777;SDS011;5946;51.770;8.548;2023-11-22T00:16:40;12.33;;;9.30;;
11777;SDS011;5946;51.770;8.548;2023-11-22T00:19:07;10.80;;;8.60;;
11777;SDS011;5946;51.770;8.548;2023-11-22T00:21:33;14.17;;;9.43;;
11777;SDS011;5946;51.770;8.548;2023-11-22T00:24:00;23.60;;;14.10;;
11777;SDS011;5946;51.770;8.548;2023-11-22T00:26:26;12.73;;;7.87;;
11777;SDS011;5946;51.770;8.548;2023-11-22T00:28:52;9.30;;;7.30;;
11777;SDS011;5946;51.770;8.548;2023-11-22T00:31:19;10.87;;;7.07;;
11777;SDS011;5946;51.770;8.548;2023-11-22T00:33:45;10.00;;;6.70;;
11777;SDS011;5946;51.770;8.548;2023-11-22T00:36:11;10.33;;;7.60;;
11777;SDS011;5946;51.770;8.548;2023-11-22T00:38:37;11.07;;;6.87;;
11777;SDS011;5946;51.770;8.548;2023-11-22T00:41:04;11.93;;;6.93;;
11777;SDS011;5946;51.770;8.548;2023-11-22T00:43:32;12.03;;;7.63;;
11777;SDS011;5946;51.770;8.548;2023-11-22T00:45:58;11.00;;;7.40;;
11777;SDS011;5946;51.770;8.548;2023-11-22T00:48:24;9.73;;;7.13;;
11777;SDS011;5946;51.770;8.548;2023-11-22T00:50:50;10.27;;;7.37;;
11777;SDS011;5946;51.770;8.548;2023-11-22T00:53:16;10.10;;;7.57;;
11777;SDS011;5946;51.770;8.548;2023-11-22T00:55:43;12.03;;;8.20;;
11777;SDS011;5946;51.770;8.548;2023-11-22T00:58:09;9.63;;;7.27;;
11777;SDS011;5946;51.770;8.548;2023-11-22T01:00:35;12.60;;;8.20;;
11777;SDS011;5946;51.770;8.548;2023-11-22T01:03:01;11.70;;;7.77;;
11777;SDS011;5946;51.770;8.548;2023-11-22T01:05:29;10.53;;;8.13;;
11777;SDS011;5946;51.770;8.548;2023-11-22T01:07:55;12.83;;;8.57;;
11777;SDS011;5946;51.770;8.548;2023-11-22T01:10:21;16.83;;;8.63;;
11777;SDS011;5946;51.770;8.548;2023-11-22T01:12:47;11.90;;;7.30;;
11777;SDS011;5946;51.770;8.548;2023-11-22T01:15:13;14.20;;;8.33;;
11777;SDS011;5946;51.770;8.548;2023-11-22T01:17:39;14.30;;;7.87;;
11777;SDS011;5946;51.770;8.548;2023-11-22T01:20:05;12.20;;;7.90;;
11777;SDS011;5946;51.770;8.548;2023-11-22T01:22:34;14.97;;;8.67;;
11777;SDS011;5946;51.770;8.548;2023-11-22T01:25:02;13.93;;;8.03;;
11777;SDS011;5946;51.770;8.548;2023-11-22T01:27:29;11.47;;;8.47;;
11777;SDS011;5946;51.770;8.548;2023-11-22T01:29:55;12.33;;;8.37;;
11777;SDS011;5946;51.770;8.548;2023-11-22T01:32:22;14.17;;;8.83;;
11777;SDS011;5946;51.770;8.548;2023-11-22T01:34:48;13.50;;;8.47;;
11777;SDS011;5946;51.770;8.548;2023-11-22T01:37:14;13.37;;;7.47;;
11777;SDS011;5946;51.770;8.548;2023-11-22T01:39:40;11.47;;;7.97;;
11777;SDS011;5946;51.770;8.548;2023-11-22T01:42:06;12.83;;;8.07;;
11777;SDS011;5946;51.770;8.548;2023-11-22T01:44:32;11.80;;;8.50;;
11777;SDS011;5946;51.770;8.548;2023-11-22T01:46:58;12.93;;;9.00;;
11777;SDS011;5946;51.770;8.548;2023-11-22T01:49:24;11.07;;;8.03;;
11777;SDS011;5946;51.770;8.548;2023-11-22T01:51:50;13.37;;;8.83;;
11777;SDS011;5946;51.770;8.548;2023-11-22T01:54:16;11.23;;;8.30;;
11777;SDS011;5946;51.770;8.548;2023-11-22T01:56:44;12.93;;;9.07;;
11777;SDS011;5946;51.770;8.548;2023-11-22T01:59:10;15.17;;;9.17;;
11777;SDS011;5946;51.770;8.548;2023-11-22T02:01:37;14.50;;;8.90;;
11777;SDS011;5946;51.770;8.548;2023-11-22T02:04:03;15.17;;;9.23;;
11777;SDS011;5946;51.770;8.548;2023-11-22T02:06:29;13.70;;;9.17;;
11777;SDS011;5946;51.770;8.548;2023-11-22T02:08:56;17.93;;;9.60;;
11777;SDS011;5946;51.770;8.548;2023-11-22T02:11:22;16.50;;;9.53;;
11777;SDS011;5946;51.770;8.548;2023-11-22T02:13:49;12.67;;;9.00;;
11777;SDS011;5946;51.770;8.548;2023-11-22T02:16:15;15.17;;;9.27;;
11777;SDS011;5946;51.770;8.548;2023-11-22T02:18:43;12.37;;;8.93;;
11777;SDS011;5946;51.770;8.548;2023-11-22T02:21:09;13.53;;;9.37;;
11777;SDS011;5946;51.770;8.548;2023-11-22T02:23:36;17.80;;;9.93;;
11777;SDS011;5946;51.770;8.548;2023-11-22T02:26:02;13.93;;;9.23;;
11777;SDS011;5946;51.770;8.548;2023-11-22T02:28:28;16.43;;;9.77;;
11777;SDS011;5946;51.770;8.548;2023-11-22T02:30:54;21.13;;;9.40;;
11777;SDS011;5946;51.770;8.548;2023-11-22T02:33:20;14.83;;;9.10;;
11777;SDS011;5946;51.770;8.548;2023-11-22T02:35:46;16.33;;;9.53;;
11777;SDS011;5946;51.770;8.548;2023-11-22T02:38:12;15.17;;;9.70;;
11777;SDS011;5946;51.770;8.548;2023-11-22T02:40:38;15.57;;;9.17;;
11777;SDS011;5946;51.770;8.548;2023-11-22T02:43:04;13.43;;;8.70;;
11777;SDS011;5946;51.770;8.548;2023-11-22T02:45:33;14.87;;;9.10;;
11777;SDS011;5946;51.770;8.548;2023-11-22T02:48:00;16.00;;;9.50;;
11777;SDS011;5946;51.770;8.548;2023-11-22T02:50:29;12.47;;;8.60;;
11777;SDS011;5946;51.770;8.548;2023-11-22T02:52:59;13.23;;;8.70;;
11777;SDS011;5946;51.770;8.548;2023-11-22T02:55:26;20.60;;;8.90;;
11777;SDS011;5946;51.770;8.548;2023-11-22T02:57:52;14.40;;;8.63;;
11777;SDS011;5946;51.770;8.548;2023-11-22T03:00:18;13.77;;;8.73;;
11777;SDS011;5946;51.770;8.548;2023-11-22T03:02:45;10.70;;;7.90;;
11777;SDS011;5946;51.770;8.548;2023-11-22T03:05:11;13.07;;;9.10;;
11777;SDS011;5946;51.770;8.548;2023-11-22T03:07:38;15.43;;;9.10;;
11777;SDS011;5946;51.770;8.548;2023-11-22T03:10:05;11.87;;;7.57;;
11777;SDS011;5946;51.770;8.548;2023-11-22T03:12:41;16.17;;;9.37;;
11777;SDS011;5946;51.770;8.548;2023-11-22T03:15:08;12.90;;;8.83;;
11777;SDS011;5946;51.770;8.548;2023-11-22T03:17:34;14.47;;;8.60;;
11777;SDS011;5946;51.770;8.548;2023-11-22T03:20:00;12.83;;;7.83;;
11777;SDS011;5946;51.770;8.548;2023-11-22T03:22:27;13.23;;;8.57;;
11777;SDS011;5946;51.770;8.548;2023-11-22T03:24:55;15.00;;;8.57;;
11777;SDS011;5946;51.770;8.548;2023-11-22T03:27:21;14.13;;;8.33;;
11777;SDS011;5946;51.770;8.548;2023-11-22T03:29:48;13.90;;;9.77;;
11777;SDS011;5946;51.770;8.548;2023-11-22T03:32:14;13.40;;;9.43;;
11777;SDS011;5946;51.770;8.548;2023-11-22T03:34:40;14.87;;;8.50;;
11777;SDS011;5946;51.770;8.548;2023-11-22T03:37:06;19.13;;;9.53;;
11777;SDS011;5946;51.770;8.548;2023-11-22T03:39:32;13.60;;;9.30;;
11777;SDS011;5946;51.770;8.548;2023-11-22T03:41:58;12.83;;;8.40;;
11777;SDS011;5946;51.770;8.548;2023-11-22T03:44:24;17.47;;;9.87;;
11777;SDS011;5946;51.770;8.548;2023-11-22T03:46:50;12.33;;;8.87;;
11777;SDS011;5946;51.770;8.548;2023-11-22T03:49:16;15.30;;;9.70;;
11777;SDS011;5946;51.770;8.548;2023-11-22T03:51:43;14.07;;;8.70;;
11777;SDS011;5946;51.770;8.548;2023-11-22T03:54:09;18.00;;;9.30;;
11777;SDS011;5946;51.770;8.548;2023-11-22T03:56:36;14.57;;;9.27;;
11777;SDS011;5946;51.770;8.548;2023-11-22T03:59:02;13.80;;;8.87;;
11777;SDS011;5946;51.770;8.548;2023-11-22T04:01:28;14.80;;;9.17;;
11777;SDS011;5946;51.770;8.548;2023-11-22T04:03:54;15.37;;;9.80;;
11777;SDS011;5946;51.770;8.548;2023-11-22T04:06:20;17.10;;;10.50;;
11777;SDS011;5946;51.770;8.548;2023-11-22T04:08:47;17.80;;;10.77;;
11777;SDS011;5946;51.770;8.548;2023-11-22T04:11:14;13.93;;;9.40;;
11777;SDS011;5946;51.770;8.548;2023-11-22T04:13:40;13.43;;;9.07;;
11777;SDS011;5946;51.770;8.548;2023-11-22T04:16:06;15.73;;;9.83;;
11777;SDS011;5946;51.770;8.548;2023-11-22T04:18:38;12.37;;;9.10;;
11777;SDS011;5946;51.770;8.548;2023-11-22T04:21:04;13.97;;;9.10;;
11777;SDS011;5946;51.770;8.548;2023-11-22T04:23:30;14.43;;;8.97;;
11777;SDS011;5946;51.770;8.548;2023-11-22T04:25:57;14.10;;;9.73;;
11777;SDS011;5946;51.770;8.548;2023-11-22T04:28:23;12.93;;;8.37;;
11777;SDS011;5946;51.770;8.548;2023-11-22T04:30:50;16.60;;;9.03;;
11777;SDS011;5946;51.770;8.548;2023-11-22T04:33:17;15.30;;;9.33;;
11777;SDS011;5946;51.770;8.548;2023-11-22T04:35:43;11.70;;;8.40;;
11777;SDS011;5946;51.770;8.548;2023-11-22T04:38:09;12.67;;;8.53;;
11777;SDS011;5946;51.770;8.548;2023-11-22T04:40:35;12.63;;;8.73;;
11777;SDS011;5946;51.770;8.548;2023-11-22T04:43:01;14.83;;;8.50;;
11777;SDS011;5946;51.770;8.548;2023-11-22T04:45:27;15.37;;;9.00;;
11777;SDS011;5946;51.770;8.548;2023-11-22T04:47:53;14.53;;;9.37;;
11777;SDS011;5946;51.770;8.548;2023-11-22T04:50:22;14.00;;;9.33;;
11777;SDS011;5946;51.770;8.548;2023-11-22T04:52:49;14.47;;;9.07;;
11777;SDS011;5946;51.770;8.548;2023-11-22T04:55:15;14.03;;;8.53;;
11777;SDS011;5946;51.770;8.548;2023-11-22T04:57:41;13.17;;;8.57;;
11777;SDS011;5946;51.770;8.548;2023-11-22T05:00:07;12.47;;;8.33;;
11777;SDS011;5946;51.770;8.548;2023-11-22T05:02:34;10.40;;;7.30;;
11777;SDS011;5946;51.770;8.548;2023-11-22T05:05:00;12.63;;;7.97;;
11777;SDS011;5946;51.770;8.548;2023-11-22T05:07:26;13.43;;;8.83;;
11777;SDS011;5946;51.770;8.548;2023-11-22T05:09:52;14.03;;;8.07;;
11777;SDS011;5946;51.770;8.548;2023-11-22T05:12:19;12.13;;;8.30;;
11777;SDS011;5946;51.770;8.548;2023-11-22T05:14:45;13.73;;;8.53;;
11777;SDS011;5946;51.770;8.548;2023-11-22T05:17:11;13.60;;;9.33;;
11777;SDS011;5946;51.770;8.548;2023-11-22T05:19:37;12.80;;;8.80;;
11777;SDS011;5946;51.770;8.548;2023-11-22T05:22:03;12.87;;;8.50;;
11777;SDS011;5946;51.770;8.548;2023-11-22T05:24:30;12.50;;;8.27;;
11777;SDS011;5946;51.770;8.548;2023-11-22T05:26:56;16.50;;;8.77;;
11777;SDS011;5946;51.770;8.548;2023-11-22T05:29:22;13.80;;;7.93;;
11777;SDS011;5946;51.770;8.548;2023-11-22T05:31:48;15.57;;;8.83;;
11777;SDS011;5946;51.770;8.548;2023-11-22T05:34:14;15.20;;;8.50;;
11777;SDS011;5946;51.770;8.548;2023-11-22T05:36:40;17.43;;;9.33;;
11777;SDS011;5946;51.770;8.548;2023-11-22T05:39:06;14.07;;;8.90;;
11777;SDS011;5946;51.770;8.548;2023-11-22T05:41:32;14.40;;;9.50;;
11777;SDS011;5946;51.770;8.548;2023-11-22T05:43:58;15.83;;;9.07;;
11777;SDS011;5946;51.770;8.548;2023-11-22T05:46:24;13.83;;;8.80;;
11777;SDS011;5946;51.770;8.548;2023-11-22T05:48:50;15.07;;;9.73;;
11777;SDS011;5946;51.770;8.548;2023-11-22T05:51:17;13.73;;;8.67;;
11777;SDS011;5946;51.770;8.548;2023-11-22T05:53:43;19.27;;;10.17;;
11777;SDS011;5946;51.770;8.548;2023-11-22T05:56:09;13.73;;;9.23;;
11777;SDS011;5946;51.770;8.548;2023-11-22T05:58:35;13.83;;;8.67;;
11777;SDS011;5946;51.770;8.548;2023-11-22T06:01:05;17.80;;;9.27;;
11777;SDS011;5946;51.770;8.548;2023-11-22T06:03:31;15.17;;;8.87;;
11777;SDS011;5946;51.770;8.548;2023-11-22T06:05:57;16.73;;;10.30;;
11777;SDS011;5946;51.770;8.548;2023-11-22T06:08:23;13.90;;;9.80;;
11777;SDS011;5946;51.770;8.548;2023-11-22T06:10:49;20.23;;;11.60;;
11777;SDS011;5946;51.770;8.548;2023-11-22T06:13:16;16.13;;;10.97;;
11777;SDS011;5946;51.770;8.548;2023-11-22T06:15:43;18.00;;;10.77;;
11777;SDS011;5946;51.770;8.548;2023-11-22T06:18:09;17.23;;;10.43;;
11777;SDS011;5946;51.770;8.548;2023-11-22T06:20:35;17.37;;;10.33;;
11777;SDS011;5946;51.770;8.548;2023-11-22T06:23:01;16.00;;;10.73;;
11777;SDS011;5946;51.770;8.548;2023-11-22T06:25:27;17.07;;;10.07;;
11777;SDS011;5946;51.770;8.548;2023-11-22T06:27:53;18.47;;;11.10;;
11777;SDS011;5946;51.770;8.548;2023-11-22T06:30:20;17.60;;;11.77;;
11777;SDS011;5946;51.770;8.548;2023-11-22T06:32:48;24.23;;;12.37;;
11777;SDS011;5946;51.770;8.548;2023-11-22T06:35:14;19.30;;;11.97;;
11777;SDS011;5946;51.770;8.548;2023-11-22T06:37:40;20.40;;;12.03;;
11777;SDS011;5946;51.770;8.548;2023-11-22T06:40:06;20.03;;;12.80;;
11777;SDS011;5946;51.770;8.548;2023-11-22T06:42:37;21.87;;;12.73;;
11777;SDS011;5946;51.770;8.548;2023-11-22T06:45:04;21.53;;;13.53;;
11777;SDS011;5946;51.770;8.548;2023-11-22T06:47:31;19.97;;;12.90;;
11777;SDS011;5946;51.770;8.548;2023-11-22T06:49:57;19.53;;;12.83;;
11777;SDS011;5946;51.770;8.548;2023-11-22T06:52:23;19.70;;;13.33;;
11777;SDS011;5946;51.770;8.548;2023-11-22T06:54:49;21.80;;;13.97;;
11777;SDS011;5946;51.770;8.548;2023-11-22T06:57:16;19.63;;;14.20;;
11777;SDS011;5946;51.770;8.548;2023-11-22T06:59:42;23.27;;;13.63;;
11777;SDS011;5946;51.770;8.548;2023-11-22T07:02:08;27.77;;;16.80;;
11777;SDS011;5946;51.770;8.548;2023-11-22T07:04:34;29.07;;;17.63;;
11777;SDS011;5946;51.770;8.548;2023-11-22T07:07:00;26.03;;;16.27;;
11777;SDS011;5946;51.770;8.548;2023-11-22T07:09:27;29.67;;;18.53;;
11777;SDS011;5946;51.770;8.548;2023-11-22T07:11:53;35.33;;;22.53;;
11777;SDS011;5946;51.770;8.548;2023-11-22T07:14:19;38.77;;;23.27;;
11777;SDS011;5946;51.770;8.548;2023-11-22T07:16:46;37.63;;;22.87;;
11777;SDS011;5946;51.770;8.548;2023-11-22T07:19:12;36.20;;;23.10;;
11777;SDS011;5946;51.770;8.548;2023-11-22T07:21:38;34.33;;;20.53;;
11777;SDS011;5946;51.770;8.548;2023-11-22T07:24:05;31.63;;;18.83;;
11777;SDS011;5946;51.770;8.548;2023-11-22T07:26:34;28.97;;;18.33;;
11777;SDS011;5946;51.770;8.548;2023-11-22T07:29:00;26.00;;;17.47;;
11777;SDS011;5946;51.770;8.548;2023-11-22T07:31:26;27.30;;;18.60;;
11777;SDS011;5946;51.770;8.548;2023-11-22T07:33:54;27.57;;;17.53;;
11777;SDS011;5946;51.770;8.548;2023-11-22T07:36:20;26.40;;;17.10;;
11777;SDS011;5946;51.770;8.548;2023-11-22T07:38:46;32.07;;;21.10;;
11777;SDS011;5946;51.770;8.548;2023-11-22T07:41:13;33.27;;;20.87;;
11777;SDS011;5946;51.770;8.548;2023-11-22T07:43:40;34.90;;;22.27;;
11777;SDS011;5946;51.770;8.548;2023-11-22T07:46:06;32.10;;;22.57;;
11777;SDS011;5946;51.770;8.548;2023-11-22T07:48:41;32.37;;;21.70;;
11777;SDS011;5946;51.770;8.548;2023-11-22T07:51:07;36.33;;;21.33;;
11777;SDS011;5946;51.770;8.548;2023-11-22T07:53:33;31.63;;;21.77;;
11777;SDS011;5946;51.770;8.548;2023-11-22T07:56:00;28.33;;;19.43;;
11777;SDS011;5946;51.770;8.548;2023-11-22T07:58:29;30.87;;;19.17;;
11777;SDS011;5946;51.770;8.548;2023-11-22T08:00:56;30.67;;;19.03;;
11777;SDS011;5946;51.770;8.548;2023-11-22T08:03:22;29.90;;;19.23;;
11777;SDS011;5946;51.770;8.548;2023-11-22T08:05:50;28.20;;;19.03;;
11777;SDS011;5946;51.770;8.548;2023-11-22T08:08:18;31.03;;;18.90;;
11777;SDS011;5946;51.770;8.548;2023-11-22T08:10:44;31.33;;;19.90;;
11777;SDS011;5946;51.770;8.548;2023-11-22T08:13:12;27.77;;;18.53;;
11777;SDS011;5946;51.770;8.548;2023-11-22T08:15:38;26.47;;;16.77;;
11777;SDS011;5946;51.770;8.548;2023-11-22T08:18:04;28.17;;;17.53;;
11777;SDS011;5946;51.770;8.548;2023-11-22T08:20:30;26.67;;;17.33;;
11777;SDS011;5946;51.770;8.548;2023-11-22T08:22:56;28.10;;;18.87;;
11777;SDS011;5946;51.770;8.548;2023-11-22T08:25:22;32.33;;;20.23;;
11777;SDS011;5946;51.770;8.548;2023-11-22T08:27:48;24.57;;;18.20;;
11777;SDS011;5946;51.770;8.548;2023-11-22T08:30:14;25.87;;;18.63;;
11777;SDS011;5946;51.770;8.548;2023-11-22T08:32:42;26.10;;;17.83;;
11777;SDS011;5946;51.770;8.548;2023-11-22T08:35:09;25.23;;;16.17;;
11777;SDS011;5946;51.770;8.548;2023-11-22T08:37:35;22.27;;;16.17;;
11777;SDS011;5946;51.770;8.548;2023-11-22T08:40:03;23.37;;;16.13;;
11777;SDS011;5946;51.770;8.548;2023-11-22T08:42:29;22.80;;;15.47;;
11777;SDS011;5946;51.770;8.548;2023-11-22T08:44:55;26.27;;;15.77;;
11777;SDS011;5946;51.770;8.548;2023-11-22T08:47:21;21.67;;;15.33;;
11777;SDS011;5946;51.770;8.548;2023-11-22T08:49:47;25.90;;;14.90;;
11777;SDS011;5946;51.770;8.548;2023-11-22T08:52:13;22.17;;;13.77;;
11777;SDS011;5946;51.770;8.548;2023-11-22T08:54:39;24.23;;;15.13;;
11777;SDS011;5946;51.770;8.548;2023-11-22T08:57:06;23.17;;;14.17;;
11777;SDS011;5946;51.770;8.548;2023-11-22T08:59:32;28.40;;;17.47;;
11777;SDS011;5946;51.770;8.548;2023-11-22T09:02:03;26.80;;;16.60;;
11777;SDS011;5946;51.770;8.548;2023-11-22T09:04:29;21.00;;;14.80;;
11777;SDS011;5946;51.770;8.548;2023-11-22T09:06:56;18.57;;;13.33;;
11777;SDS011;5946;51.770;8.548;2023-11-22T09:09:22;18.63;;;13.37;;
11777;SDS011;5946;51.770;8.548;2023-11-22T09:11:55;17.43;;;12.67;;
11777;SDS011;5946;51.770;8.548;2023-11-22T09:14:22;18.40;;;13.17;;
11777;SDS011;5946;51.770;8.548;2023-11-22T09:16:48;17.40;;;11.93;;
11777;SDS011;5946;51.770;8.548;2023-11-22T09:19:19;17.30;;;11.23;;
11777;SDS011;5946;51.770;8.548;2023-11-22T09:21:45;17.93;;;11.13;;
11777;SDS011;5946;51.770;8.548;2023-11-22T09:24:11;16.20;;;9.67;;
11777;SDS011;5946;51.770;8.548;2023-11-22T09:26:37;13.93;;;10.43;;
11777;SDS011;5946;51.770;8.548;2023-11-22T09:29:03;14.43;;;9.27;;
11777;SDS011;5946;51.770;8.548;2023-11-22T09:31:30;12.70;;;9.97;;
11777;SDS011;5946;51.770;8.548;2023-11-22T09:33:56;15.93;;;9.87;;
11777;SDS011;5946;51.770;8.548;2023-11-22T09:36:22;12.97;;;9.30;;
11777;SDS011;5946;51.770;8.548;2023-11-22T09:38:52;13.13;;;8.50;;
11777;SDS011;5946;51.770;8.548;2023-11-22T09:41:18;11.77;;;8.43;;
11777;SDS011;5946;51.770;8.548;2023-11-22T09:43:44;8.70;;;7.30;;
11777;SDS011;5946;51.770;8.548;2023-11-22T09:46:14;11.10;;;6.87;;
11777;SDS011;5946;51.770;8.548;2023-11-22T09:48:42;10.73;;;7.10;;
11777;SDS011;5946;51.770;8.548;2023-11-22T09:51:27;10.17;;;6.63;;
11777;SDS011;5946;51.770;8.548;2023-11-22T09:53:58;8.97;;;7.00;;
11777;SDS011;5946;51.770;8.548;2023-11-22T09:56:26;9.33;;;7.40;;
11777;SDS011;5946;51.770;8.548;2023-11-22T09:58:55;9.20;;;7.10;;
11777;SDS011;5946;51.770;8.548;2023-11-22T10:01:25;10.73;;;7.00;;
11777;SDS011;5946;51.770;8.548;2023-11-22T10:03:53;10.00;;;7.40;;
11777;SDS011;5946;51.770;8.548;2023-11-22T10:06:20;9.83;;;7.40;;
11777;SDS011;5946;51.770;8.548;2023-11-22T10:08:46;10.67;;;7.30;;
11777;SDS011;5946;51.770;8.548;2023-11-22T10:11:15;9.17;;;5.93;;
11777;SDS011;5946;51.770;8.548;2023-11-22T10:13:49;8.33;;;5.97;;
11777;SDS011;5946;51.770;8.548;2023-11-22T10:16:16;8.70;;;6.50;;
11777;SDS011;5946;51.770;8.548;2023-11-22T10:18:44;8.00;;;6.17;;
11777;SDS011;5946;51.770;8.548;2023-11-22T10:21:23;9.73;;;6.23;;
11777;SDS011;5946;51.770;8.548;2023-11-22T10:23:50;8.37;;;6.27;;
11777;SDS011;5946;51.770;8.548;2023-11-22T10:26:21;7.73;;;6.00;;
11777;SDS011;5946;51.770;8.548;2023-11-22T10:28:50;9.87;;;7.13;;
11777;SDS011;5946;51.770;8.548;2023-11-22T10:31:16;8.33;;;6.73;;
11777;SDS011;5946;51.770;8.548;2023-11-22T10:33:42;8.30;;;6.43;;
11777;SDS011;5946;51.770;8.548;2023-11-22T10:36:08;9.00;;;6.70;;
11777;SDS011;5946;51.770;8.548;2023-11-22T10:38:35;8.13;;;6.17;;
11777;SDS011;5946;51.770;8.548;2023-11-22T10:41:04;7.43;;;5.20;;
11777;SDS011;5946;51.770;8.548;2023-11-22T10:43:30;8.00;;;6.13;;
11777;SDS011;5946;51.770;8.548;2023-11-22T10:46:00;8.27;;;6.03;;
11777;SDS011;5946;51.770;8.548;2023-11-22T10:48:26;10.93;;;5.90;;
11777;SDS011;5946;51.770;8.548;2023-11-22T10:50:54;6.27;;;5.33;;
11777;SDS011;5946;51.770;8.548;2023-11-22T10:53:21;9.40;;;6.03;;
11777;SDS011;5946;51.770;8.548;2023-11-22T10:55:49;8.73;;;5.30;;
11777;SDS011;5946;51.770;8.548;2023-11-22T10:58:22;7.67;;;5.13;;
11777;SDS011;5946;51.770;8.548;2023-11-22T11:00:50;6.13;;;5.07;;
11777;SDS011;5946;51.770;8.548;2023-11-22T11:03:20;7.57;;;5.03;;
11777;SDS011;5946;51.770;8.548;2023-11-22T11:05:59;6.17;;;4.70;;
11777;SDS011;5946;51.770;8.548;2023-11-22T11:08:29;8.43;;;5.30;;
11777;SDS011;5946;51.770;8.548;2023-11-22T11:10:56;9.37;;;4.70;;
11777;SDS011;5946;51.770;8.548;2023-11-22T11:13:23;5.37;;;4.20;;
11777;SDS011;5946;51.770;8.548;2023-11-22T11:15:49;5.40;;;4.20;;
11777;SDS011;5946;51.770;8.548;2023-11-22T11:18:17;5.63;;;4.60;;
11777;SDS011;5946;51.770;8.548;2023-11-22T11:20:52;6.10;;;4.43;;
11777;SDS011;5946;51.770;8.548;2023-11-22T11:23:22;5.93;;;4.20;;
11777;SDS011;5946;51.770;8.548;2023-11-22T11:28:21;7.13;;;4.23;;
11777;SDS011;5946;51.770;8.548;2023-11-22T11:30:50;4.87;;;4.23;;
11777;SDS011;5946;51.770;8.548;2023-11-22T11:36:04;6.17;;;4.30;;
11777;SDS011;5946;51.770;8.548;2023-11-22T11:38:31;4.60;;;3.80;;
11777;SDS011;5946;51.770;8.548;2023-11-22T11:41:09;7.30;;;4.37;;
11777;SDS011;5946;51.770;8.548;2023-11-22T11:43:45;5.70;;;4.60;;
11777;SDS011;5946;51.770;8.548;2023-11-22T11:46:12;4.53;;;3.93;;
11777;SDS011;5946;51.770;8.548;2023-11-22T11:48:41;6.57;;;4.23;;
11777;SDS011;5946;51.770;8.548;2023-11-22T11:51:07;5.97;;;4.37;;
11777;SDS011;5946;51.770;8.548;2023-11-22T11:53:33;5.67;;;3.63;;
11777;SDS011;5946;51.770;8.548;2023-11-22T11:56:01;5.77;;;4.67;;
11777;SDS011;5946;51.770;8.548;2023-11-22T11:58:27;7.23;;;4.57;;
11777;SDS011;5946;51.770;8.548;2023-11-22T12:00:54;6.43;;;4.57;;
11777;SDS011;5946;51.770;8.548;2023-11-22T12:03:20;4.93;;;3.97;;
11777;SDS011;5946;51.770;8.548;2023-11-22T12:05:46;7.37;;;5.33;;
11777;SDS011;5946;51.770;8.548;2023-11-22T12:08:14;6.33;;;4.90;;
11777;SDS011;5946;51.770;8.548;2023-11-22T12:10:41;6.13;;;4.90;;
11777;SDS011;5946;51.770;8.548;2023-11-22T12:13:07;6.77;;;4.97;;
11777;SDS011;5946;51.770;8.548;2023-11-22T12:15:33;6.70;;;4.53;;
11777;SDS011;5946;51.770;8.548;2023-11-22T12:18:00;7.70;;;4.57;;
11777;SDS011;5946;51.770;8.548;2023-11-22T12:20:26;5.57;;;4.30;;
11777;SDS011;5946;51.770;8.548;2023-11-22T12:22:57;6.80;;;4.57;;
11777;SDS011;5946;51.770;8.548;2023-11-22T12:25:25;5.73;;;4.13;;
11777;SDS011;5946;51.770;8.548;2023-11-22T12:27:53;5.70;;;4.30;;
11777;SDS011;5946;51.770;8.548;2023-11-22T12:30:29;9.40;;;4.90;;
11777;SDS011;5946;51.770;8.548;2023-11-22T12:32:57;9.47;;;4.40;;
11777;SDS011;5946;51.770;8.548;2023-11-22T12:35:23;4.73;;;3.97;;
11777;SDS011;5946;51.770;8.548;2023-11-22T12:37:49;5.23;;;4.40;;
11777;SDS011;5946;51.770;8.548;2023-11-22T12:40:15;6.63;;;4.13;;
11777;SDS011;5946;51.770;8.548;2023-11-22T12:42:49;6.60;;;3.90;;
11777;SDS011;5946;51.770;8.548;2023-11-22T12:45:25;6.77;;;4.53;;
11777;SDS011;5946;51.770;8.548;2023-11-22T12:47:51;7.63;;;4.23;;
11777;SDS011;5946;51.770;8.548;2023-11-22T12:52:56;11.93;;;8.67;;
11777;SDS011;5946;51.770;8.548;2023-11-22T12:55:22;6.07;;;4.73;;
11777;SDS011;5946;51.770;8.548;2023-11-22T12:58:00;5.43;;;4.57;;
11777;SDS011;5946;51.770;8.548;2023-11-22T13:00:28;10.23;;;7.20;;
11777;SDS011;5946;51.770;8.548;2023-11-22T13:02:58;5.77;;;4.13;;
11777;SDS011;5946;51.770;8.548;2023-11-22T13:05:24;4.40;;;3.50;;
11777;SDS011;5946;51.770;8.548;2023-11-22T13:07:50;4.27;;;3.87;;
11777;SDS011;5946;51.770;8.548;2023-11-22T13:10:16;4.87;;;3.80;;
11777;SDS011;5946;51.770;8.548;2023-11-22T13:12:43;4.27;;;3.20;;
11777;SDS011;5946;51.770;8.548;2023-11-22T13:15:09;5.67;;;4.03;;
11777;SDS011;5946;51.770;8.548;2023-11-22T13:17:38;6.93;;;3.80;;
11777;SDS011;5946;51.770;8.548;2023-11-22T13:20:08;9.73;;;4.60;;
11777;SDS011;5946;51.770;8.548;2023-11-22T13:22:40;7.07;;;4.17;;
11777;SDS011;5946;51.770;8.548;2023-11-22T13:25:07;5.27;;;4.07;;
11777;SDS011;5946;51.770;8.548;2023-11-22T13:27:35;4.83;;;3.70;;
11777;SDS011;5946;51.770;8.548;2023-11-22T13:30:01;4.13;;;3.37;;
11777;SDS011;5946;51.770;8.548;2023-11-22T13:32:27;5.13;;;3.73;;
11777;SDS011;5946;51.770;8.548;2023-11-22T13:34:53;4.87;;;3.00;;
11777;SDS011;5946;51.770;8.548;2023-11-22T13:37:23;11.70;;;8.40;;
11777;SDS011;5946;51.770;8.548;2023-11-22T13:39:49;3.93;;;3.43;;
11777;SDS011;5946;51.770;8.548;2023-11-22T13:42:15;4.33;;;3.67;;
11777;SDS011;5946;51.770;8.548;2023-11-22T13:44:41;6.60;;;4.10;;
11777;SDS011;5946;51.770;8.548;2023-11-22T13:47:09;17.03;;;11.33;;
11777;SDS011;5946;51.770;8.548;2023-11-22T13:49:35;10.97;;;7.07;;
11777;SDS011;5946;51.770;8.548;2023-11-22T13:52:02;8.07;;;4.17;;
11777;SDS011;5946;51.770;8.548;2023-11-22T13:54:28;17.67;;;12.07;;
11777;SDS011;5946;51.770;8.548;2023-11-22T13:56:54;7.93;;;5.40;;
11777;SDS011;5946;51.770;8.548;2023-11-22T13:59:20;11.57;;;6.90;;
11777;SDS011;5946;51.770;8.548;2023-11-22T14:01:46;13.83;;;8.83;;
11777;SDS011;5946;51.770;8.548;2023-11-22T14:04:12;9.97;;;6.90;;
11777;SDS011;5946;51.770;8.548;2023-11-22T14:06:38;5.60;;;4.70;;
11777;SDS011;5946;51.770;8.548;2023-11-22T14:09:04;8.03;;;3.73;;
11777;SDS011;5946;51.770;8.548;2023-11-22T14:11:33;5.67;;;3.83;;
11777;SDS011;5946;51.770;8.548;2023-11-22T14:14:02;4.93;;;3.37;;
11777;SDS011;5946;51.770;8.548;2023-11-22T14:16:29;4.73;;;3.87;;
11777;SDS011;5946;51.770;8.548;2023-11-22T14:19:00;5.30;;;3.90;;
11777;SDS011;5946;51.770;8.548;2023-11-22T14:21:26;4.93;;;3.70;;
11777;SDS011;5946;51.770;8.548;2023-11-22T14:23:53;6.53;;;4.17;;
11777;SDS011;5946;51.770;8.548;2023-11-22T14:26:19;5.17;;;3.73;;
11777;SDS011;5946;51.770;8.548;2023-11-22T14:28:47;5.47;;;4.00;;
11777;SDS011;5946;51.770;8.548;2023-11-22T14:31:15;7.30;;;4.27;;
11777;SDS011;5946;51.770;8.548;2023-11-22T14:33:41;5.93;;;4.83;;
11777;SDS011;5946;51.770;8.548;2023-11-22T14:36:07;9.10;;;7.00;;
11777;SDS011;5946;51.770;8.548;2023-11-22T14:38:33;7.37;;;5.43;;
11777;SDS011;5946;51.770;8.548;2023-11-22T14:40:59;6.27;;;4.80;;
11777;SDS011;5946;51.770;8.548;2023-11-22T14:43:26;7.00;;;4.10;;
11777;SDS011;5946;51.770;8.548;2023-11-22T14:45:52;6.20;;;4.63;;
11777;SDS011;5946;51.770;8.548;2023-11-22T14:48:19;6.90;;;4.10;;
11777;SDS011;5946;51.770;8.548;2023-11-22T14:50:45;5.73;;;4.60;;
11777;SDS011;5946;51.770;8.548;2023-11-22T14:53:11;6.27;;;4.53;;
11777;SDS011;5946;51.770;8.548;2023-11-22T14:55:38;10.10;;;6.97;;